sensor_id;sensor_type;location;lat;lon;timestamp;P1;durP1;ratioP1;P2;durP2;ratioP2
12908;SDS011;6522;49.622;6.126;2023-08-21T00:02:35;5.62;;;4.00;;
12908;SDS011;6522;49.622;6.126;2023-08-21T00:05:22;9.73;;;5.47;;
12908;SDS011;6522;49.622;6.126;2023-08-21T00:08:09;6.35;;;4.35;;
12908;SDS011;6522;49.622;6.126;2023-08-21T00:10:55;5.80;;;5.20;;
12908;SDS011;6522;49.622;6.126;2023-08-21T00:13:42;5.32;;;4.62;;
12908;SDS011;6522;49.622;6.126;2023-08-21T00:16:29;8.73;;;7.83;;
12908;SDS011;6522;49.622;6.126;2023-08-21T00:19:16;5.50;;;5.00;;
12908;SDS011;6522;49.622;6.126;2023-08-21T00:22:02;6.90;;;4.70;;
12908;SDS011;6522;49.622;6.126;2023-08-21T00:24:49;8.50;;;6.10;;
12908;SDS011;6522;49.622;6.126;2023-08-21T00:27:36;7.50;;;6.10;;
12908;SDS011;6522;49.622;6.126;2023-08-21T00:30:22;9.53;;;8.73;;
12908;SDS011;6522;49.622;6.126;2023-08-21T00:33:09;8.85;;;7.47;;
12908;SDS011;6522;49.622;6.126;2023-08-21T00:35:56;8.97;;;8.10;;
12908;SDS011;6522;49.622;6.126;2023-08-21T00:38:43;8.30;;;7.50;;
12908;SDS011;6522;49.622;6.126;2023-08-21T00:41:30;7.80;;;7.10;;
12908;SDS011;6522;49.622;6.126;2023-08-21T00:44:16;7.00;;;6.30;;
12908;SDS011;6522;49.622;6.126;2023-08-21T00:47:03;6.40;;;5.73;;
12908;SDS011;6522;49.622;6.126;2023-08-21T00:49:50;7.40;;;4.85;;
12908;SDS011;6522;49.622;6.126;2023-08-21T00:52:38;7.70;;;5.70;;
12908;SDS011;6522;49.622;6.126;2023-08-21T00:55:23;7.90;;;4.37;;
12908;SDS011;6522;49.622;6.126;2023-08-21T00:58:10;6.57;;;5.13;;
12908;SDS011;6522;49.622;6.126;2023-08-21T01:00:57;4.40;;;3.90;;
12908;SDS011;6522;49.622;6.126;2023-08-21T01:03:44;6.03;;;5.30;;
12908;SDS011;6522;49.622;6.126;2023-08-21T01:06:31;5.78;;;4.80;;
12908;SDS011;6522;49.622;6.126;2023-08-21T01:09:19;4.80;;;4.28;;
12908;SDS011;6522;49.622;6.126;2023-08-21T01:15:10;6.72;;;4.00;;
12908;SDS011;6522;49.622;6.126;2023-08-21T01:17:56;7.60;;;4.30;;
12908;SDS011;6522;49.622;6.126;2023-08-21T01:20:43;5.57;;;4.53;;
12908;SDS011;6522;49.622;6.126;2023-08-21T01:26:17;4.90;;;4.40;;
12908;SDS011;6522;49.622;6.126;2023-08-21T01:29:03;5.15;;;4.60;;
12908;SDS011;6522;49.622;6.126;2023-08-21T01:34:43;5.03;;;4.18;;
12908;SDS011;6522;49.622;6.126;2023-08-21T01:37:30;6.50;;;4.40;;
12908;SDS011;6522;49.622;6.126;2023-08-21T01:40:23;4.40;;;3.97;;
12908;SDS011;6522;49.622;6.126;2023-08-21T01:43:10;7.05;;;4.32;;
12908;SDS011;6522;49.622;6.126;2023-08-21T01:45:57;6.45;;;4.20;;
12908;SDS011;6522;49.622;6.126;2023-08-21T01:48:44;4.77;;;4.27;;
12908;SDS011;6522;49.622;6.126;2023-08-21T01:51:31;6.57;;;4.55;;
12908;SDS011;6522;49.622;6.126;2023-08-21T01:54:17;4.82;;;3.80;;
12908;SDS011;6522;49.622;6.126;2023-08-21T01:57:04;5.63;;;4.53;;
12908;SDS011;6522;49.622;6.126;2023-08-21T01:59:51;5.33;;;4.40;;
12908;SDS011;6522;49.622;6.126;2023-08-21T02:02:37;10.13;;;4.70;;
12908;SDS011;6522;49.622;6.126;2023-08-21T02:05:24;4.60;;;3.40;;
12908;SDS011;6522;49.622;6.126;2023-08-21T02:08:14;6.03;;;3.80;;
12908;SDS011;6522;49.622;6.126;2023-08-21T02:11:00;5.60;;;5.10;;
12908;SDS011;6522;49.622;6.126;2023-08-21T02:13:47;5.72;;;4.00;;
12908;SDS011;6522;49.622;6.126;2023-08-21T02:16:34;7.97;;;5.00;;
12908;SDS011;6522;49.622;6.126;2023-08-21T02:19:20;7.10;;;4.50;;
12908;SDS011;6522;49.622;6.126;2023-08-21T02:22:07;5.53;;;5.03;;
12908;SDS011;6522;49.622;6.126;2023-08-21T02:24:54;7.72;;;4.62;;
12908;SDS011;6522;49.622;6.126;2023-08-21T02:27:41;8.43;;;4.60;;
12908;SDS011;6522;49.622;6.126;2023-08-21T02:30:28;6.33;;;5.73;;
12908;SDS011;6522;49.622;6.126;2023-08-21T02:33:15;8.18;;;4.60;;
12908;SDS011;6522;49.622;6.126;2023-08-21T02:36:02;8.03;;;5.17;;
12908;SDS011;6522;49.622;6.126;2023-08-21T02:38:49;7.05;;;5.10;;
12908;SDS011;6522;49.622;6.126;2023-08-21T02:41:36;8.30;;;5.97;;
12908;SDS011;6522;49.622;6.126;2023-08-21T02:44:23;6.90;;;4.65;;
12908;SDS011;6522;49.622;6.126;2023-08-21T02:47:09;8.20;;;4.90;;
12908;SDS011;6522;49.622;6.126;2023-08-21T02:49:56;10.20;;;6.20;;
12908;SDS011;6522;49.622;6.126;2023-08-21T02:52:43;6.65;;;4.72;;
12908;SDS011;6522;49.622;6.126;2023-08-21T02:55:29;8.27;;;5.00;;
12908;SDS011;6522;49.622;6.126;2023-08-21T02:58:16;7.10;;;5.57;;
12908;SDS011;6522;49.622;6.126;2023-08-21T03:01:03;8.77;;;5.40;;
12908;SDS011;6522;49.622;6.126;2023-08-21T03:03:49;8.77;;;5.83;;
12908;SDS011;6522;49.622;6.126;2023-08-21T03:06:36;8.03;;;5.80;;
12908;SDS011;6522;49.622;6.126;2023-08-21T03:09:22;9.03;;;4.73;;
12908;SDS011;6522;49.622;6.126;2023-08-21T03:12:09;9.73;;;4.87;;
12908;SDS011;6522;49.622;6.126;2023-08-21T03:14:56;6.07;;;4.70;;
12908;SDS011;6522;49.622;6.126;2023-08-21T03:17:43;6.50;;;5.10;;
12908;SDS011;6522;49.622;6.126;2023-08-21T03:20:30;7.15;;;5.53;;
12908;SDS011;6522;49.622;6.126;2023-08-21T03:23:17;7.70;;;6.27;;
12908;SDS011;6522;49.622;6.126;2023-08-21T03:26:04;9.88;;;5.80;;
12908;SDS011;6522;49.622;6.126;2023-08-21T03:28:51;7.00;;;5.53;;
12908;SDS011;6522;49.622;6.126;2023-08-21T03:31:38;7.60;;;6.43;;
12908;SDS011;6522;49.622;6.126;2023-08-21T03:34:24;5.80;;;5.18;;
12908;SDS011;6522;49.622;6.126;2023-08-21T03:37:11;7.20;;;5.70;;
12908;SDS011;6522;49.622;6.126;2023-08-21T03:39:58;7.50;;;5.80;;
12908;SDS011;6522;49.622;6.126;2023-08-21T03:42:45;5.87;;;4.80;;
12908;SDS011;6522;49.622;6.126;2023-08-21T03:45:32;6.90;;;5.00;;
12908;SDS011;6522;49.622;6.126;2023-08-21T03:48:18;7.00;;;6.40;;
12908;SDS011;6522;49.622;6.126;2023-08-21T03:51:05;6.60;;;4.90;;
12908;SDS011;6522;49.622;6.126;2023-08-21T03:53:51;6.97;;;5.67;;
12908;SDS011;6522;49.622;6.126;2023-08-21T03:56:38;6.57;;;6.00;;
12908;SDS011;6522;49.622;6.126;2023-08-21T03:59:25;7.23;;;5.10;;
12908;SDS011;6522;49.622;6.126;2023-08-21T04:02:12;7.93;;;6.47;;
12908;SDS011;6522;49.622;6.126;2023-08-21T04:04:59;16.50;;;7.13;;
12908;SDS011;6522;49.622;6.126;2023-08-21T04:07:46;7.90;;;6.18;;
12908;SDS011;6522;49.622;6.126;2023-08-21T04:10:33;8.25;;;5.40;;
12908;SDS011;6522;49.622;6.126;2023-08-21T04:13:19;11.50;;;6.73;;
12908;SDS011;6522;49.622;6.126;2023-08-21T04:16:06;7.30;;;5.65;;
12908;SDS011;6522;49.622;6.126;2023-08-21T04:18:53;6.45;;;5.07;;
12908;SDS011;6522;49.622;6.126;2023-08-21T04:21:40;11.80;;;6.13;;
12908;SDS011;6522;49.622;6.126;2023-08-21T04:24:27;6.80;;;5.40;;
12908;SDS011;6522;49.622;6.126;2023-08-21T04:27:13;6.37;;;5.30;;
12908;SDS011;6522;49.622;6.126;2023-08-21T04:30:00;6.53;;;5.90;;
12908;SDS011;6522;49.622;6.126;2023-08-21T04:32:47;6.65;;;5.00;;
12908;SDS011;6522;49.622;6.126;2023-08-21T04:35:37;7.97;;;5.32;;
12908;SDS011;6522;49.622;6.126;2023-08-21T04:38:23;6.47;;;5.83;;
12908;SDS011;6522;49.622;6.126;2023-08-21T04:41:10;7.37;;;6.35;;
12908;SDS011;6522;49.622;6.126;2023-08-21T04:43:57;8.07;;;6.00;;
12908;SDS011;6522;49.622;6.126;2023-08-21T04:46:47;13.43;;;6.87;;
12908;SDS011;6522;49.622;6.126;2023-08-21T04:49:30;9.97;;;5.97;;
12908;SDS011;6522;49.622;6.126;2023-08-21T04:52:17;6.40;;;5.10;;
12908;SDS011;6522;49.622;6.126;2023-08-21T04:55:05;7.30;;;5.60;;
12908;SDS011;6522;49.622;6.126;2023-08-21T04:57:51;8.95;;;5.53;;
12908;SDS011;6522;49.622;6.126;2023-08-21T05:00:38;8.07;;;6.60;;
12908;SDS011;6522;49.622;6.126;2023-08-21T05:03:24;9.77;;;5.80;;
12908;SDS011;6522;49.622;6.126;2023-08-21T05:06:11;6.95;;;5.05;;
12908;SDS011;6522;49.622;6.126;2023-08-21T05:08:57;9.50;;;7.30;;
12908;SDS011;6522;49.622;6.126;2023-08-21T05:11:44;10.90;;;5.10;;
12908;SDS011;6522;49.622;6.126;2023-08-21T05:14:31;7.53;;;6.15;;
12908;SDS011;6522;49.622;6.126;2023-08-21T05:17:18;9.90;;;5.78;;
12908;SDS011;6522;49.622;6.126;2023-08-21T05:20:04;11.32;;;5.60;;
12908;SDS011;6522;49.622;6.126;2023-08-21T05:22:51;9.87;;;7.00;;
12908;SDS011;6522;49.622;6.126;2023-08-21T05:25:38;9.10;;;5.82;;
12908;SDS011;6522;49.622;6.126;2023-08-21T05:28:25;7.35;;;5.95;;
12908;SDS011;6522;49.622;6.126;2023-08-21T05:31:12;6.73;;;5.97;;
12908;SDS011;6522;49.622;6.126;2023-08-21T05:33:59;9.83;;;5.70;;
12908;SDS011;6522;49.622;6.126;2023-08-21T05:36:46;7.47;;;5.75;;
12908;SDS011;6522;49.622;6.126;2023-08-21T05:39:32;9.50;;;6.73;;
12908;SDS011;6522;49.622;6.126;2023-08-21T05:42:20;7.70;;;6.07;;
12908;SDS011;6522;49.622;6.126;2023-08-21T05:45:06;9.63;;;6.70;;
12908;SDS011;6522;49.622;6.126;2023-08-21T05:47:54;9.90;;;6.47;;
12908;SDS011;6522;49.622;6.126;2023-08-21T05:50:40;8.83;;;6.20;;
12908;SDS011;6522;49.622;6.126;2023-08-21T05:53:27;10.77;;;6.00;;
12908;SDS011;6522;49.622;6.126;2023-08-21T05:56:14;10.05;;;6.00;;
12908;SDS011;6522;49.622;6.126;2023-08-21T05:59:00;7.20;;;6.60;;
12908;SDS011;6522;49.622;6.126;2023-08-21T06:01:47;8.13;;;6.40;;
12908;SDS011;6522;49.622;6.126;2023-08-21T06:04:34;10.53;;;7.03;;
12908;SDS011;6522;49.622;6.126;2023-08-21T06:07:21;6.85;;;6.15;;
12908;SDS011;6522;49.622;6.126;2023-08-21T06:10:08;7.65;;;6.85;;
12908;SDS011;6522;49.622;6.126;2023-08-21T06:12:54;6.60;;;5.97;;
12908;SDS011;6522;49.622;6.126;2023-08-21T06:15:43;9.05;;;6.30;;
12908;SDS011;6522;49.622;6.126;2023-08-21T06:18:28;8.00;;;6.50;;
12908;SDS011;6522;49.622;6.126;2023-08-21T06:21:15;10.35;;;6.32;;
12908;SDS011;6522;49.622;6.126;2023-08-21T06:24:02;9.37;;;7.93;;
12908;SDS011;6522;49.622;6.126;2023-08-21T06:26:50;9.45;;;6.47;;
12908;SDS011;6522;49.622;6.126;2023-08-21T06:29:36;8.43;;;7.70;;
12908;SDS011;6522;49.622;6.126;2023-08-21T06:32:23;7.00;;;6.20;;
12908;SDS011;6522;49.622;6.126;2023-08-21T06:35:09;8.27;;;7.13;;
12908;SDS011;6522;49.622;6.126;2023-08-21T06:37:56;8.90;;;6.72;;
12908;SDS011;6522;49.622;6.126;2023-08-21T06:40:44;8.37;;;7.67;;
12908;SDS011;6522;49.622;6.126;2023-08-21T06:43:30;7.57;;;6.28;;
12908;SDS011;6522;49.622;6.126;2023-08-21T06:46:16;10.40;;;7.13;;
12908;SDS011;6522;49.622;6.126;2023-08-21T06:49:03;8.57;;;7.78;;
12908;SDS011;6522;49.622;6.126;2023-08-21T06:51:50;8.40;;;7.67;;
12908;SDS011;6522;49.622;6.126;2023-08-21T06:54:37;8.70;;;7.93;;
12908;SDS011;6522;49.622;6.126;2023-08-21T06:57:23;9.07;;;8.20;;
12908;SDS011;6522;49.622;6.126;2023-08-21T07:00:10;8.60;;;7.90;;
12908;SDS011;6522;49.622;6.126;2023-08-21T07:02:58;9.33;;;8.40;;
12908;SDS011;6522;49.622;6.126;2023-08-21T07:06:03;11.77;;;9.00;;
12908;SDS011;6522;49.622;6.126;2023-08-21T07:08:35;9.60;;;8.70;;
12908;SDS011;6522;49.622;6.126;2023-08-21T07:11:22;10.23;;;9.43;;
12908;SDS011;6522;49.622;6.126;2023-08-21T07:14:08;8.93;;;8.23;;
12908;SDS011;6522;49.622;6.126;2023-08-21T07:16:55;10.20;;;9.30;;
12908;SDS011;6522;49.622;6.126;2023-08-21T07:19:42;9.80;;;9.00;;
12908;SDS011;6522;49.622;6.126;2023-08-21T07:22:29;10.17;;;9.27;;
12908;SDS011;6522;49.622;6.126;2023-08-21T07:25:16;9.50;;;8.60;;
12908;SDS011;6522;49.622;6.126;2023-08-21T07:28:02;9.80;;;8.98;;
12908;SDS011;6522;49.622;6.126;2023-08-21T07:30:56;11.07;;;10.10;;
12908;SDS011;6522;49.622;6.126;2023-08-21T07:33:42;17.93;;;10.90;;
12908;SDS011;6522;49.622;6.126;2023-08-21T07:36:28;11.43;;;10.53;;
12908;SDS011;6522;49.622;6.126;2023-08-21T07:39:15;10.57;;;9.43;;
12908;SDS011;6522;49.622;6.126;2023-08-21T07:42:02;11.03;;;10.23;;
12908;SDS011;6522;49.622;6.126;2023-08-21T07:44:49;9.52;;;8.82;;
12908;SDS011;6522;49.622;6.126;2023-08-21T07:47:36;11.10;;;10.40;;
12908;SDS011;6522;49.622;6.126;2023-08-21T07:50:23;10.52;;;9.63;;
12908;SDS011;6522;49.622;6.126;2023-08-21T07:53:10;14.40;;;13.30;;
12908;SDS011;6522;49.622;6.126;2023-08-21T07:55:57;13.40;;;12.30;;
12908;SDS011;6522;49.622;6.126;2023-08-21T07:58:43;16.50;;;15.20;;
12908;SDS011;6522;49.622;6.126;2023-08-21T08:01:29;14.90;;;13.70;;
12908;SDS011;6522;49.622;6.126;2023-08-21T08:04:16;12.65;;;11.65;;
12908;SDS011;6522;49.622;6.126;2023-08-21T08:07:03;13.67;;;12.70;;
12908;SDS011;6522;49.622;6.126;2023-08-21T08:09:50;13.33;;;12.53;;
12908;SDS011;6522;49.622;6.126;2023-08-21T08:12:37;16.47;;;15.27;;
12908;SDS011;6522;49.622;6.126;2023-08-21T08:15:24;16.70;;;15.80;;
12908;SDS011;6522;49.622;6.126;2023-08-21T08:18:12;18.90;;;17.50;;
12908;SDS011;6522;49.622;6.126;2023-08-21T08:20:57;17.73;;;16.73;;
12908;SDS011;6522;49.622;6.126;2023-08-21T08:23:44;17.57;;;16.63;;
12908;SDS011;6522;49.622;6.126;2023-08-21T08:26:31;17.67;;;16.67;;
12908;SDS011;6522;49.622;6.126;2023-08-21T08:29:18;17.30;;;16.23;;
12908;SDS011;6522;49.622;6.126;2023-08-21T08:32:05;18.30;;;17.30;;
12908;SDS011;6522;49.622;6.126;2023-08-21T08:34:51;18.00;;;17.10;;
12908;SDS011;6522;49.622;6.126;2023-08-21T08:37:38;18.93;;;17.83;;
12908;SDS011;6522;49.622;6.126;2023-08-21T08:40:24;19.13;;;17.87;;
12908;SDS011;6522;49.622;6.126;2023-08-21T08:43:11;18.90;;;18.00;;
12908;SDS011;6522;49.622;6.126;2023-08-21T08:45:58;17.80;;;16.60;;
12908;SDS011;6522;49.622;6.126;2023-08-21T08:48:44;18.90;;;17.63;;
12908;SDS011;6522;49.622;6.126;2023-08-21T08:51:31;18.03;;;17.00;;
12908;SDS011;6522;49.622;6.126;2023-08-21T08:54:18;19.33;;;18.30;;
12908;SDS011;6522;49.622;6.126;2023-08-21T08:57:05;18.30;;;17.43;;
12908;SDS011;6522;49.622;6.126;2023-08-21T08:59:52;16.92;;;16.00;;
12908;SDS011;6522;49.622;6.126;2023-08-21T09:02:38;20.33;;;19.13;;
12908;SDS011;6522;49.622;6.126;2023-08-21T09:05:25;18.90;;;17.90;;
12908;SDS011;6522;49.622;6.126;2023-08-21T09:08:12;19.47;;;18.47;;
12908;SDS011;6522;49.622;6.126;2023-08-21T09:11:02;21.40;;;20.17;;
12908;SDS011;6522;49.622;6.126;2023-08-21T09:13:52;21.43;;;20.27;;
12908;SDS011;6522;49.622;6.126;2023-08-21T09:16:57;21.77;;;20.57;;
12908;SDS011;6522;49.622;6.126;2023-08-21T09:19:25;22.37;;;21.27;;
12908;SDS011;6522;49.622;6.126;2023-08-21T09:22:13;21.80;;;20.50;;
12908;SDS011;6522;49.622;6.126;2023-08-21T09:25:08;21.30;;;20.23;;
12908;SDS011;6522;49.622;6.126;2023-08-21T09:27:45;21.20;;;20.20;;
12908;SDS011;6522;49.622;6.126;2023-08-21T09:30:44;21.57;;;20.57;;
12908;SDS011;6522;49.622;6.126;2023-08-21T09:33:31;21.87;;;20.87;;
12908;SDS011;6522;49.622;6.126;2023-08-21T09:36:17;21.97;;;20.87;;
12908;SDS011;6522;49.622;6.126;2023-08-21T09:39:04;22.40;;;21.00;;
12908;SDS011;6522;49.622;6.126;2023-08-21T09:41:54;21.20;;;20.20;;
12908;SDS011;6522;49.622;6.126;2023-08-21T09:44:41;21.43;;;20.13;;
12908;SDS011;6522;49.622;6.126;2023-08-21T09:47:28;21.60;;;20.40;;
12908;SDS011;6522;49.622;6.126;2023-08-21T09:50:14;21.40;;;20.40;;
12908;SDS011;6522;49.622;6.126;2023-08-21T09:53:02;22.17;;;20.70;;
12908;SDS011;6522;49.622;6.126;2023-08-21T09:55:52;22.37;;;20.73;;
12908;SDS011;6522;49.622;6.126;2023-08-21T09:58:38;22.20;;;20.60;;
12908;SDS011;6522;49.622;6.126;2023-08-21T10:01:25;19.37;;;18.20;;
12908;SDS011;6522;49.622;6.126;2023-08-21T10:04:12;18.50;;;17.50;;
12908;SDS011;6522;49.622;6.126;2023-08-21T10:06:58;19.10;;;18.10;;
12908;SDS011;6522;49.622;6.126;2023-08-21T10:09:45;21.10;;;19.87;;
12908;SDS011;6522;49.622;6.126;2023-08-21T10:12:32;21.80;;;20.70;;
12908;SDS011;6522;49.622;6.126;2023-08-21T10:15:19;20.90;;;19.90;;
12908;SDS011;6522;49.622;6.126;2023-08-21T10:18:29;19.50;;;18.50;;
12908;SDS011;6522;49.622;6.126;2023-08-21T10:21:12;21.60;;;20.50;;
12908;SDS011;6522;49.622;6.126;2023-08-21T10:23:58;19.87;;;18.90;;
12908;SDS011;6522;49.622;6.126;2023-08-21T10:26:44;20.03;;;19.03;;
12908;SDS011;6522;49.622;6.126;2023-08-21T10:29:31;21.07;;;19.97;;
12908;SDS011;6522;49.622;6.126;2023-08-21T10:32:18;21.83;;;20.83;;
12908;SDS011;6522;49.622;6.126;2023-08-21T10:35:05;21.07;;;20.07;;
12908;SDS011;6522;49.622;6.126;2023-08-21T10:38:12;19.12;;;18.15;;
12908;SDS011;6522;49.622;6.126;2023-08-21T10:41:05;20.90;;;19.90;;
12908;SDS011;6522;49.622;6.126;2023-08-21T10:43:51;20.20;;;19.20;;
12908;SDS011;6522;49.622;6.126;2023-08-21T10:46:51;20.63;;;19.63;;
12908;SDS011;6522;49.622;6.126;2023-08-21T10:49:34;19.20;;;18.20;;
12908;SDS011;6522;49.622;6.126;2023-08-21T10:52:22;21.70;;;20.60;;
12908;SDS011;6522;49.622;6.126;2023-08-21T10:55:08;22.57;;;21.27;;
12908;SDS011;6522;49.622;6.126;2023-08-21T10:57:55;22.30;;;21.00;;
12908;SDS011;6522;49.622;6.126;2023-08-21T11:00:42;20.83;;;19.83;;
12908;SDS011;6522;49.622;6.126;2023-08-21T11:03:29;20.63;;;19.60;;
12908;SDS011;6522;49.622;6.126;2023-08-21T11:06:18;20.00;;;19.10;;
12908;SDS011;6522;49.622;6.126;2023-08-21T11:09:02;21.53;;;20.33;;
12908;SDS011;6522;49.622;6.126;2023-08-21T11:11:49;20.50;;;19.60;;
12908;SDS011;6522;49.622;6.126;2023-08-21T11:14:35;21.43;;;20.43;;
12908;SDS011;6522;49.622;6.126;2023-08-21T11:17:22;21.23;;;20.33;;
12908;SDS011;6522;49.622;6.126;2023-08-21T11:20:09;20.93;;;19.93;;
12908;SDS011;6522;49.622;6.126;2023-08-21T11:23:00;20.07;;;19.07;;
12908;SDS011;6522;49.622;6.126;2023-08-21T11:25:44;20.43;;;19.27;;
12908;SDS011;6522;49.622;6.126;2023-08-21T11:28:31;19.33;;;18.43;;
12908;SDS011;6522;49.622;6.126;2023-08-21T11:31:17;20.23;;;19.30;;
12908;SDS011;6522;49.622;6.126;2023-08-21T11:34:04;20.60;;;19.60;;
12908;SDS011;6522;49.622;6.126;2023-08-21T11:36:51;21.03;;;20.03;;
12908;SDS011;6522;49.622;6.126;2023-08-21T11:39:41;21.13;;;19.93;;
12908;SDS011;6522;49.622;6.126;2023-08-21T11:42:28;20.10;;;19.13;;
12908;SDS011;6522;49.622;6.126;2023-08-21T11:45:14;19.40;;;18.50;;
12908;SDS011;6522;49.622;6.126;2023-08-21T11:48:01;19.63;;;18.63;;
12908;SDS011;6522;49.622;6.126;2023-08-21T11:50:48;19.23;;;18.03;;
12908;SDS011;6522;49.622;6.126;2023-08-21T11:53:35;17.60;;;16.80;;
12908;SDS011;6522;49.622;6.126;2023-08-21T11:56:21;20.60;;;19.50;;
12908;SDS011;6522;49.622;6.126;2023-08-21T11:59:08;20.30;;;19.40;;
12908;SDS011;6522;49.622;6.126;2023-08-21T12:01:55;19.73;;;18.60;;
12908;SDS011;6522;49.622;6.126;2023-08-21T12:04:42;16.52;;;15.63;;
12908;SDS011;6522;49.622;6.126;2023-08-21T12:07:29;16.35;;;15.55;;
12908;SDS011;6522;49.622;6.126;2023-08-21T12:10:26;18.30;;;17.50;;
12908;SDS011;6522;49.622;6.126;2023-08-21T12:13:12;20.07;;;18.97;;
12908;SDS011;6522;49.622;6.126;2023-08-21T12:15:58;20.30;;;19.20;;
12908;SDS011;6522;49.622;6.126;2023-08-21T12:18:46;17.30;;;16.40;;
12908;SDS011;6522;49.622;6.126;2023-08-21T12:21:32;16.95;;;16.15;;
12908;SDS011;6522;49.622;6.126;2023-08-21T12:24:19;18.77;;;17.83;;
12908;SDS011;6522;49.622;6.126;2023-08-21T12:27:06;18.53;;;17.63;;
12908;SDS011;6522;49.622;6.126;2023-08-21T12:29:53;18.67;;;17.77;;
12908;SDS011;6522;49.622;6.126;2023-08-21T12:32:39;18.83;;;18.00;;
12908;SDS011;6522;49.622;6.126;2023-08-21T12:35:26;18.70;;;17.87;;
12908;SDS011;6522;49.622;6.126;2023-08-21T12:38:13;18.87;;;17.63;;
12908;SDS011;6522;49.622;6.126;2023-08-21T12:41:01;20.20;;;19.30;;
12908;SDS011;6522;49.622;6.126;2023-08-21T12:43:46;20.57;;;19.67;;
12908;SDS011;6522;49.622;6.126;2023-08-21T12:46:33;20.83;;;19.73;;
12908;SDS011;6522;49.622;6.126;2023-08-21T12:49:20;20.47;;;19.57;;
12908;SDS011;6522;49.622;6.126;2023-08-21T12:52:07;20.00;;;19.10;;
12908;SDS011;6522;49.622;6.126;2023-08-21T12:54:53;20.10;;;19.03;;
12908;SDS011;6522;49.622;6.126;2023-08-21T12:57:40;19.43;;;18.53;;
12908;SDS011;6522;49.622;6.126;2023-08-21T13:00:27;19.57;;;18.57;;
12908;SDS011;6522;49.622;6.126;2023-08-21T13:03:14;19.73;;;18.77;;
12908;SDS011;6522;49.622;6.126;2023-08-21T13:06:01;21.37;;;20.37;;
12908;SDS011;6522;49.622;6.126;2023-08-21T13:08:48;21.57;;;19.90;;
12908;SDS011;6522;49.622;6.126;2023-08-21T13:11:34;20.67;;;19.67;;
12908;SDS011;6522;49.622;6.126;2023-08-21T13:14:21;20.97;;;19.80;;
12908;SDS011;6522;49.622;6.126;2023-08-21T13:17:08;19.40;;;18.50;;
12908;SDS011;6522;49.622;6.126;2023-08-21T13:19:55;19.77;;;18.80;;
12908;SDS011;6522;49.622;6.126;2023-08-21T13:22:45;19.50;;;18.60;;
12908;SDS011;6522;49.622;6.126;2023-08-21T13:25:31;19.40;;;18.50;;
12908;SDS011;6522;49.622;6.126;2023-08-21T13:28:17;19.93;;;19.00;;
12908;SDS011;6522;49.622;6.126;2023-08-21T13:31:05;20.10;;;19.07;;
12908;SDS011;6522;49.622;6.126;2023-08-21T13:33:51;19.23;;;18.33;;
12908;SDS011;6522;49.622;6.126;2023-08-21T13:36:38;20.37;;;19.27;;
12908;SDS011;6522;49.622;6.126;2023-08-21T13:39:25;20.33;;;19.23;;
12908;SDS011;6522;49.622;6.126;2023-08-21T13:42:11;20.47;;;19.57;;
12908;SDS011;6522;49.622;6.126;2023-08-21T13:44:58;19.50;;;18.60;;
12908;SDS011;6522;49.622;6.126;2023-08-21T13:47:46;19.23;;;18.43;;
12908;SDS011;6522;49.622;6.126;2023-08-21T13:50:32;20.40;;;19.40;;
12908;SDS011;6522;49.622;6.126;2023-08-21T13:53:19;20.60;;;19.70;;
12908;SDS011;6522;49.622;6.126;2023-08-21T13:56:06;20.30;;;19.40;;
12908;SDS011;6522;49.622;6.126;2023-08-21T13:58:52;20.23;;;19.23;;
12908;SDS011;6522;49.622;6.126;2023-08-21T14:01:39;19.43;;;18.53;;
12908;SDS011;6522;49.622;6.126;2023-08-21T14:04:27;19.63;;;18.63;;
12908;SDS011;6522;49.622;6.126;2023-08-21T14:07:13;19.80;;;18.90;;
12908;SDS011;6522;49.622;6.126;2023-08-21T14:10:00;21.07;;;20.07;;
12908;SDS011;6522;49.622;6.126;2023-08-21T14:12:46;22.10;;;21.00;;
12908;SDS011;6522;49.622;6.126;2023-08-21T14:15:33;21.93;;;20.73;;
12908;SDS011;6522;49.622;6.126;2023-08-21T14:18:20;21.33;;;20.23;;
12908;SDS011;6522;49.622;6.126;2023-08-21T14:21:07;20.93;;;19.93;;
12908;SDS011;6522;49.622;6.126;2023-08-21T14:23:53;19.80;;;18.90;;
12908;SDS011;6522;49.622;6.126;2023-08-21T14:26:40;20.80;;;19.80;;
12908;SDS011;6522;49.622;6.126;2023-08-21T14:29:27;17.60;;;16.60;;
12908;SDS011;6522;49.622;6.126;2023-08-21T14:32:14;21.07;;;20.07;;
12908;SDS011;6522;49.622;6.126;2023-08-21T14:35:01;18.30;;;17.40;;
12908;SDS011;6522;49.622;6.126;2023-08-21T14:37:48;21.80;;;20.80;;
12908;SDS011;6522;49.622;6.126;2023-08-21T14:40:35;21.50;;;20.40;;
12908;SDS011;6522;49.622;6.126;2023-08-21T14:43:21;21.13;;;20.03;;
12908;SDS011;6522;49.622;6.126;2023-08-21T14:46:08;21.87;;;20.80;;
12908;SDS011;6522;49.622;6.126;2023-08-21T14:48:55;21.50;;;20.43;;
12908;SDS011;6522;49.622;6.126;2023-08-21T14:51:41;22.20;;;20.90;;
12908;SDS011;6522;49.622;6.126;2023-08-21T14:54:28;21.53;;;20.43;;
12908;SDS011;6522;49.622;6.126;2023-08-21T14:57:15;21.20;;;20.10;;
12908;SDS011;6522;49.622;6.126;2023-08-21T15:00:02;20.30;;;19.30;;
12908;SDS011;6522;49.622;6.126;2023-08-21T15:02:48;19.50;;;18.60;;
12908;SDS011;6522;49.622;6.126;2023-08-21T15:05:35;20.00;;;19.00;;
12908;SDS011;6522;49.622;6.126;2023-08-21T15:08:22;21.83;;;20.83;;
12908;SDS011;6522;49.622;6.126;2023-08-21T15:11:09;21.53;;;20.43;;
12908;SDS011;6522;49.622;6.126;2023-08-21T15:13:56;21.10;;;20.00;;
12908;SDS011;6522;49.622;6.126;2023-08-21T15:16:43;21.10;;;20.20;;
12908;SDS011;6522;49.622;6.126;2023-08-21T15:19:30;20.13;;;19.13;;
12908;SDS011;6522;49.622;6.126;2023-08-21T15:22:17;20.63;;;19.53;;
12908;SDS011;6522;49.622;6.126;2023-08-21T15:25:03;20.63;;;19.30;;
12908;SDS011;6522;49.622;6.126;2023-08-21T15:27:50;21.70;;;20.63;;
12908;SDS011;6522;49.622;6.126;2023-08-21T15:30:37;21.30;;;20.20;;
12908;SDS011;6522;49.622;6.126;2023-08-21T15:33:24;21.53;;;20.33;;
12908;SDS011;6522;49.622;6.126;2023-08-21T15:36:11;21.27;;;20.17;;
12908;SDS011;6522;49.622;6.126;2023-08-21T15:38:58;20.53;;;19.43;;
12908;SDS011;6522;49.622;6.126;2023-08-21T15:41:44;21.00;;;19.90;;
12908;SDS011;6522;49.622;6.126;2023-08-21T15:44:31;21.47;;;20.30;;
12908;SDS011;6522;49.622;6.126;2023-08-21T15:47:18;22.30;;;21.20;;
12908;SDS011;6522;49.622;6.126;2023-08-21T15:50:05;22.20;;;21.00;;
12908;SDS011;6522;49.622;6.126;2023-08-21T15:52:52;21.93;;;20.80;;
12908;SDS011;6522;49.622;6.126;2023-08-21T15:55:38;23.30;;;22.20;;
12908;SDS011;6522;49.622;6.126;2023-08-21T15:58:25;19.67;;;18.58;;
12908;SDS011;6522;49.622;6.126;2023-08-21T16:01:12;20.80;;;19.80;;
12908;SDS011;6522;49.622;6.126;2023-08-21T16:03:58;21.33;;;19.93;;
12908;SDS011;6522;49.622;6.126;2023-08-21T16:06:45;20.23;;;19.27;;
12908;SDS011;6522;49.622;6.126;2023-08-21T16:09:32;22.50;;;21.30;;
12908;SDS011;6522;49.622;6.126;2023-08-21T16:12:19;21.83;;;20.83;;
12908;SDS011;6522;49.622;6.126;2023-08-21T16:15:06;22.10;;;21.00;;
12908;SDS011;6522;49.622;6.126;2023-08-21T16:17:53;22.20;;;21.10;;
12908;SDS011;6522;49.622;6.126;2023-08-21T16:20:39;20.30;;;19.30;;
12908;SDS011;6522;49.622;6.126;2023-08-21T16:23:26;21.60;;;20.50;;
12908;SDS011;6522;49.622;6.126;2023-08-21T16:26:13;21.20;;;20.10;;
12908;SDS011;6522;49.622;6.126;2023-08-21T16:29:00;21.40;;;20.40;;
12908;SDS011;6522;49.622;6.126;2023-08-21T16:31:47;21.90;;;20.83;;
12908;SDS011;6522;49.622;6.126;2023-08-21T16:34:33;20.80;;;19.80;;
12908;SDS011;6522;49.622;6.126;2023-08-21T16:37:20;21.70;;;20.60;;
12908;SDS011;6522;49.622;6.126;2023-08-21T16:40:07;20.70;;;19.80;;
12908;SDS011;6522;49.622;6.126;2023-08-21T16:42:54;20.90;;;19.87;;
12908;SDS011;6522;49.622;6.126;2023-08-21T16:45:41;20.03;;;19.13;;
12908;SDS011;6522;49.622;6.126;2023-08-21T16:48:28;22.20;;;21.10;;
12908;SDS011;6522;49.622;6.126;2023-08-21T16:51:15;23.03;;;21.63;;
12908;SDS011;6522;49.622;6.126;2023-08-21T16:54:01;22.53;;;21.43;;